sensor_id;sensor_type;location;lat;lon;timestamp;P1;durP1;ratioP1;P2;durP2;ratioP2
72205;SDS011;60111;48.286;7.812;2022-12-29T00:02:09;2.58;;;1.27;;
72205;SDS011;60111;48.286;7.812;2022-12-29T00:04:42;3.97;;;1.27;;
72205;SDS011;60111;48.286;7.812;2022-12-29T00:07:15;3.43;;;1.50;;
72205;SDS011;60111;48.286;7.812;2022-12-29T00:09:48;3.92;;;1.30;;
72205;SDS011;60111;48.286;7.812;2022-12-29T00:12:21;3.67;;;1.50;;
72205;SDS011;60111;48.286;7.812;2022-12-29T00:14:53;4.15;;;1.50;;
72205;SDS011;60111;48.286;7.812;2022-12-29T00:17:44;2.33;;;1.30;;
72205;SDS011;60111;48.286;7.812;2022-12-29T00:20:17;2.20;;;1.40;;
72205;SDS011;60111;48.286;7.812;2022-12-29T00:23:08;4.37;;;1.52;;
72205;SDS011;60111;48.286;7.812;2022-12-29T00:26:02;5.47;;;1.60;;
72205;SDS011;60111;48.286;7.812;2022-12-29T00:28:52;3.47;;;1.20;;
72205;SDS011;60111;48.286;7.812;2022-12-29T00:31:42;3.77;;;1.30;;
72205;SDS011;60111;48.286;7.812;2022-12-29T00:34:33;2.00;;;1.20;;
72205;SDS011;60111;48.286;7.812;2022-12-29T00:37:23;3.42;;;1.32;;
72205;SDS011;60111;48.286;7.812;2022-12-29T00:39:58;3.30;;;1.40;;
72205;SDS011;60111;48.286;7.812;2022-12-29T00:42:49;2.50;;;1.42;;
72205;SDS011;60111;48.286;7.812;2022-12-29T00:45:40;4.83;;;1.42;;
72205;SDS011;60111;48.286;7.812;2022-12-29T00:48:13;1.80;;;1.10;;
72205;SDS011;60111;48.286;7.812;2022-12-29T00:50:48;4.78;;;1.70;;
72205;SDS011;60111;48.286;7.812;2022-12-29T00:53:20;1.95;;;1.30;;
72205;SDS011;60111;48.286;7.812;2022-12-29T00:55:53;3.52;;;1.30;;
72205;SDS011;60111;48.286;7.812;2022-12-29T00:58:28;4.73;;;1.30;;
72205;SDS011;60111;48.286;7.812;2022-12-29T01:01:02;6.00;;;1.27;;
72205;SDS011;60111;48.286;7.812;2022-12-29T01:03:36;3.35;;;1.37;;
72205;SDS011;60111;48.286;7.812;2022-12-29T01:06:09;3.17;;;1.20;;
72205;SDS011;60111;48.286;7.812;2022-12-29T01:08:44;2.45;;;1.45;;
72205;SDS011;60111;48.286;7.812;2022-12-29T01:11:16;3.47;;;1.33;;
72205;SDS011;60111;48.286;7.812;2022-12-29T01:13:49;1.70;;;1.35;;
72205;SDS011;60111;48.286;7.812;2022-12-29T01:16:21;3.27;;;1.10;;
72205;SDS011;60111;48.286;7.812;2022-12-29T01:18:54;2.90;;;1.45;;
72205;SDS011;60111;48.286;7.812;2022-12-29T01:21:26;4.30;;;1.50;;
72205;SDS011;60111;48.286;7.812;2022-12-29T01:23:59;2.80;;;1.37;;
72205;SDS011;60111;48.286;7.812;2022-12-29T01:26:32;4.33;;;1.40;;
72205;SDS011;60111;48.286;7.812;2022-12-29T01:29:05;3.12;;;1.50;;
72205;SDS011;60111;48.286;7.812;2022-12-29T01:31:37;2.27;;;1.20;;
72205;SDS011;60111;48.286;7.812;2022-12-29T01:34:10;5.87;;;1.60;;
72205;SDS011;60111;48.286;7.812;2022-12-29T01:36:43;3.57;;;1.50;;
72205;SDS011;60111;48.286;7.812;2022-12-29T01:39:16;2.58;;;1.37;;
72205;SDS011;60111;48.286;7.812;2022-12-29T01:41:48;7.12;;;1.70;;
72205;SDS011;60111;48.286;7.812;2022-12-29T01:47:26;1.72;;;1.25;;
72205;SDS011;60111;48.286;7.812;2022-12-29T01:50:04;2.47;;;1.30;;
72205;SDS011;60111;48.286;7.812;2022-12-29T01:52:40;4.47;;;1.55;;
72205;SDS011;60111;48.286;7.812;2022-12-29T01:55:13;3.47;;;1.40;;
72205;SDS011;60111;48.286;7.812;2022-12-29T01:57:47;3.23;;;1.30;;
72205;SDS011;60111;48.286;7.812;2022-12-29T02:00:22;2.93;;;1.30;;
72205;SDS011;60111;48.286;7.812;2022-12-29T02:02:55;2.08;;;1.20;;
72205;SDS011;60111;48.286;7.812;2022-12-29T02:05:33;4.47;;;1.80;;
72205;SDS011;60111;48.286;7.812;2022-12-29T02:08:06;3.02;;;1.30;;
72205;SDS011;60111;48.286;7.812;2022-12-29T02:10:40;2.27;;;1.40;;
72205;SDS011;60111;48.286;7.812;2022-12-29T02:13:17;4.15;;;1.45;;
72205;SDS011;60111;48.286;7.812;2022-12-29T02:18:41;2.17;;;1.47;;
72205;SDS011;60111;48.286;7.812;2022-12-29T02:27:29;6.93;;;1.20;;
72205;SDS011;60111;48.286;7.812;2022-12-29T02:36:12;2.60;;;1.40;;
72205;SDS011;60111;48.286;7.812;2022-12-29T02:38:59;4.55;;;1.62;;
72205;SDS011;60111;48.286;7.812;2022-12-29T02:41:33;3.70;;;1.60;;
72205;SDS011;60111;48.286;7.812;2022-12-29T02:44:35;3.52;;;1.75;;
72205;SDS011;60111;48.286;7.812;2022-12-29T02:47:10;3.15;;;1.50;;
72205;SDS011;60111;48.286;7.812;2022-12-29T02:49:57;3.70;;;1.70;;
72205;SDS011;60111;48.286;7.812;2022-12-29T02:52:42;2.22;;;1.40;;
72205;SDS011;60111;48.286;7.812;2022-12-29T02:55:12;3.35;;;1.72;;
72205;SDS011;60111;48.286;7.812;2022-12-29T02:57:45;3.30;;;1.60;;
72205;SDS011;60111;48.286;7.812;2022-12-29T03:00:17;2.47;;;1.60;;
72205;SDS011;60111;48.286;7.812;2022-12-29T03:11:27;3.75;;;1.70;;
72205;SDS011;60111;48.286;7.812;2022-12-29T03:17:27;3.77;;;1.90;;
72205;SDS011;60111;48.286;7.812;2022-12-29T03:20:07;2.60;;;1.92;;
72205;SDS011;60111;48.286;7.812;2022-12-29T03:22:39;4.33;;;1.80;;
72205;SDS011;60111;48.286;7.812;2022-12-29T03:28:07;3.43;;;1.77;;
72205;SDS011;60111;48.286;7.812;2022-12-29T03:30:40;5.40;;;1.90;;
72205;SDS011;60111;48.286;7.812;2022-12-29T03:33:16;5.28;;;1.77;;
72205;SDS011;60111;48.286;7.812;2022-12-29T03:35:51;4.33;;;1.80;;
72205;SDS011;60111;48.286;7.812;2022-12-29T03:38:33;3.17;;;1.70;;
72205;SDS011;60111;48.286;7.812;2022-12-29T03:41:03;3.15;;;1.87;;
72205;SDS011;60111;48.286;7.812;2022-12-29T03:43:37;3.55;;;1.70;;
72205;SDS011;60111;48.286;7.812;2022-12-29T03:46:10;5.90;;;2.10;;
72205;SDS011;60111;48.286;7.812;2022-12-29T03:48:43;5.90;;;2.08;;
72205;SDS011;60111;48.286;7.812;2022-12-29T03:51:15;2.87;;;1.75;;
72205;SDS011;60111;48.286;7.812;2022-12-29T03:53:48;4.53;;;1.97;;
72205;SDS011;60111;48.286;7.812;2022-12-29T03:56:20;7.22;;;2.12;;
72205;SDS011;60111;48.286;7.812;2022-12-29T03:58:53;7.05;;;2.22;;
72205;SDS011;60111;48.286;7.812;2022-12-29T04:01:25;5.20;;;2.02;;
72205;SDS011;60111;48.286;7.812;2022-12-29T04:03:58;3.95;;;2.20;;
72205;SDS011;60111;48.286;7.812;2022-12-29T04:06:30;6.37;;;2.85;;
72205;SDS011;60111;48.286;7.812;2022-12-29T04:09:03;5.10;;;2.17;;
72205;SDS011;60111;48.286;7.812;2022-12-29T04:11:36;3.83;;;2.15;;
72205;SDS011;60111;48.286;7.812;2022-12-29T04:14:09;4.75;;;1.98;;
72205;SDS011;60111;48.286;7.812;2022-12-29T04:16:41;5.42;;;2.20;;
72205;SDS011;60111;48.286;7.812;2022-12-29T04:19:14;4.20;;;2.15;;
72205;SDS011;60111;48.286;7.812;2022-12-29T04:21:46;4.83;;;2.10;;
72205;SDS011;60111;48.286;7.812;2022-12-29T04:24:19;2.90;;;2.10;;
72205;SDS011;60111;48.286;7.812;2022-12-29T04:26:51;2.60;;;2.17;;
72205;SDS011;60111;48.286;7.812;2022-12-29T04:29:24;4.22;;;2.20;;
72205;SDS011;60111;48.286;7.812;2022-12-29T04:31:57;3.17;;;2.00;;
72205;SDS011;60111;48.286;7.812;2022-12-29T04:34:29;2.17;;;1.82;;
72205;SDS011;60111;48.286;7.812;2022-12-29T04:37:02;3.80;;;2.27;;
72205;SDS011;60111;48.286;7.812;2022-12-29T04:39:34;2.87;;;1.90;;
72205;SDS011;60111;48.286;7.812;2022-12-29T04:42:07;3.37;;;1.90;;
72205;SDS011;60111;48.286;7.812;2022-12-29T04:44:39;3.33;;;1.77;;
72205;SDS011;60111;48.286;7.812;2022-12-29T04:47:12;2.80;;;2.02;;
72205;SDS011;60111;48.286;7.812;2022-12-29T04:49:45;4.60;;;2.50;;
72205;SDS011;60111;48.286;7.812;2022-12-29T04:52:17;4.10;;;2.30;;
72205;SDS011;60111;48.286;7.812;2022-12-29T04:54:50;4.62;;;1.75;;
72205;SDS011;60111;48.286;7.812;2022-12-29T04:57:22;5.33;;;2.40;;
72205;SDS011;60111;48.286;7.812;2022-12-29T04:59:55;6.42;;;2.20;;
72205;SDS011;60111;48.286;7.812;2022-12-29T05:02:27;6.00;;;2.47;;
72205;SDS011;60111;48.286;7.812;2022-12-29T05:05:00;3.43;;;1.90;;
72205;SDS011;60111;48.286;7.812;2022-12-29T05:07:32;1.90;;;1.70;;
72205;SDS011;60111;48.286;7.812;2022-12-29T05:10:05;4.67;;;2.25;;
72205;SDS011;60111;48.286;7.812;2022-12-29T05:12:39;5.90;;;2.37;;
72205;SDS011;60111;48.286;7.812;2022-12-29T05:15:12;5.70;;;1.98;;
72205;SDS011;60111;48.286;7.812;2022-12-29T05:17:44;3.80;;;2.58;;
72205;SDS011;60111;48.286;7.812;2022-12-29T05:20:17;3.58;;;2.15;;
72205;SDS011;60111;48.286;7.812;2022-12-29T05:22:49;3.72;;;2.50;;
72205;SDS011;60111;48.286;7.812;2022-12-29T05:25:22;3.60;;;2.25;;
72205;SDS011;60111;48.286;7.812;2022-12-29T05:27:54;4.17;;;2.20;;
72205;SDS011;60111;48.286;7.812;2022-12-29T05:30:27;3.37;;;2.22;;
72205;SDS011;60111;48.286;7.812;2022-12-29T05:32:59;6.12;;;2.30;;
72205;SDS011;60111;48.286;7.812;2022-12-29T05:35:32;6.55;;;2.37;;
72205;SDS011;60111;48.286;7.812;2022-12-29T05:38:05;4.55;;;2.00;;
72205;SDS011;60111;48.286;7.812;2022-12-29T05:40:38;4.45;;;2.30;;
72205;SDS011;60111;48.286;7.812;2022-12-29T05:43:11;5.20;;;2.15;;
72205;SDS011;60111;48.286;7.812;2022-12-29T05:45:43;3.37;;;2.10;;
72205;SDS011;60111;48.286;7.812;2022-12-29T05:48:16;3.52;;;2.00;;
72205;SDS011;60111;48.286;7.812;2022-12-29T05:50:49;4.62;;;2.15;;
72205;SDS011;60111;48.286;7.812;2022-12-29T05:53:22;3.13;;;1.93;;
72205;SDS011;60111;48.286;7.812;2022-12-29T05:55:54;6.37;;;2.58;;
72205;SDS011;60111;48.286;7.812;2022-12-29T05:58:27;3.17;;;1.90;;
72205;SDS011;60111;48.286;7.812;2022-12-29T06:00:59;2.15;;;1.77;;
72205;SDS011;60111;48.286;7.812;2022-12-29T06:03:32;3.92;;;2.30;;
72205;SDS011;60111;48.286;7.812;2022-12-29T06:06:05;5.22;;;2.20;;
72205;SDS011;60111;48.286;7.812;2022-12-29T06:08:38;4.83;;;2.17;;
72205;SDS011;60111;48.286;7.812;2022-12-29T06:11:10;5.17;;;2.00;;
72205;SDS011;60111;48.286;7.812;2022-12-29T06:13:43;3.97;;;2.00;;
72205;SDS011;60111;48.286;7.812;2022-12-29T06:16:16;5.83;;;1.92;;
72205;SDS011;60111;48.286;7.812;2022-12-29T06:18:48;5.03;;;2.10;;
72205;SDS011;60111;48.286;7.812;2022-12-29T06:21:21;4.65;;;1.80;;
72205;SDS011;60111;48.286;7.812;2022-12-29T06:23:53;7.10;;;2.15;;
72205;SDS011;60111;48.286;7.812;2022-12-29T06:26:26;3.95;;;2.12;;
72205;SDS011;60111;48.286;7.812;2022-12-29T06:28:58;4.10;;;2.37;;
72205;SDS011;60111;48.286;7.812;2022-12-29T06:31:31;6.92;;;2.60;;
72205;SDS011;60111;48.286;7.812;2022-12-29T06:34:03;4.80;;;2.30;;
72205;SDS011;60111;48.286;7.812;2022-12-29T06:36:36;5.00;;;2.42;;
72205;SDS011;60111;48.286;7.812;2022-12-29T06:39:09;7.10;;;2.20;;
72205;SDS011;60111;48.286;7.812;2022-12-29T06:41:42;4.28;;;2.05;;
72205;SDS011;60111;48.286;7.812;2022-12-29T06:44:15;4.35;;;2.05;;
72205;SDS011;60111;48.286;7.812;2022-12-29T06:46:47;5.03;;;1.97;;
72205;SDS011;60111;48.286;7.812;2022-12-29T06:49:20;6.28;;;3.02;;
72205;SDS011;60111;48.286;7.812;2022-12-29T06:51:53;8.23;;;3.27;;
72205;SDS011;60111;48.286;7.812;2022-12-29T06:54:26;5.08;;;2.12;;
72205;SDS011;60111;48.286;7.812;2022-12-29T06:56:59;3.73;;;2.10;;
72205;SDS011;60111;48.286;7.812;2022-12-29T06:59:32;5.60;;;1.90;;
72205;SDS011;60111;48.286;7.812;2022-12-29T07:02:05;3.87;;;2.00;;
72205;SDS011;60111;48.286;7.812;2022-12-29T07:04:38;7.93;;;2.03;;
72205;SDS011;60111;48.286;7.812;2022-12-29T07:07:11;5.42;;;2.15;;
72205;SDS011;60111;48.286;7.812;2022-12-29T07:09:43;5.78;;;2.10;;
72205;SDS011;60111;48.286;7.812;2022-12-29T07:12:17;3.27;;;1.87;;
72205;SDS011;60111;48.286;7.812;2022-12-29T07:14:49;3.23;;;2.13;;
72205;SDS011;60111;48.286;7.812;2022-12-29T07:17:22;3.52;;;1.80;;
72205;SDS011;60111;48.286;7.812;2022-12-29T07:19:54;3.33;;;2.07;;
72205;SDS011;60111;48.286;7.812;2022-12-29T07:22:27;6.35;;;2.00;;
72205;SDS011;60111;48.286;7.812;2022-12-29T07:24:59;4.28;;;1.98;;
72205;SDS011;60111;48.286;7.812;2022-12-29T07:27:33;3.33;;;1.92;;
72205;SDS011;60111;48.286;7.812;2022-12-29T07:30:06;4.03;;;2.25;;
72205;SDS011;60111;48.286;7.812;2022-12-29T07:32:39;3.17;;;1.85;;
72205;SDS011;60111;48.286;7.812;2022-12-29T07:35:11;2.58;;;1.70;;
72205;SDS011;60111;48.286;7.812;2022-12-29T07:37:44;4.97;;;2.30;;
72205;SDS011;60111;48.286;7.812;2022-12-29T07:40:17;6.03;;;2.72;;
72205;SDS011;60111;48.286;7.812;2022-12-29T07:42:49;4.42;;;2.08;;
72205;SDS011;60111;48.286;7.812;2022-12-29T07:45:22;4.78;;;2.02;;
72205;SDS011;60111;48.286;7.812;2022-12-29T07:47:54;7.42;;;2.47;;
72205;SDS011;60111;48.286;7.812;2022-12-29T07:50:27;4.30;;;1.90;;
72205;SDS011;60111;48.286;7.812;2022-12-29T07:53:00;6.00;;;2.27;;
72205;SDS011;60111;48.286;7.812;2022-12-29T07:55:33;3.30;;;2.00;;
72205;SDS011;60111;48.286;7.812;2022-12-29T07:58:05;5.47;;;1.70;;
72205;SDS011;60111;48.286;7.812;2022-12-29T08:00:38;4.22;;;2.00;;
72205;SDS011;60111;48.286;7.812;2022-12-29T08:03:11;4.15;;;1.75;;
72205;SDS011;60111;48.286;7.812;2022-12-29T08:05:43;4.80;;;2.00;;
72205;SDS011;60111;48.286;7.812;2022-12-29T08:08:16;4.37;;;1.60;;
72205;SDS011;60111;48.286;7.812;2022-12-29T08:10:48;4.20;;;1.80;;
72205;SDS011;60111;48.286;7.812;2022-12-29T08:13:21;2.58;;;1.65;;
72205;SDS011;60111;48.286;7.812;2022-12-29T08:15:54;5.05;;;1.92;;
72205;SDS011;60111;48.286;7.812;2022-12-29T08:18:26;2.67;;;1.57;;
72205;SDS011;60111;48.286;7.812;2022-12-29T08:21:02;3.02;;;1.65;;
72205;SDS011;60111;48.286;7.812;2022-12-29T08:23:55;4.47;;;1.90;;
72205;SDS011;60111;48.286;7.812;2022-12-29T08:26:28;5.75;;;1.70;;
72205;SDS011;60111;48.286;7.812;2022-12-29T08:29:00;3.08;;;2.02;;
72205;SDS011;60111;48.286;7.812;2022-12-29T08:31:34;6.12;;;1.80;;
72205;SDS011;60111;48.286;7.812;2022-12-29T08:34:06;3.83;;;1.67;;
72205;SDS011;60111;48.286;7.812;2022-12-29T08:36:39;4.20;;;1.92;;
72205;SDS011;60111;48.286;7.812;2022-12-29T08:39:11;3.03;;;2.03;;
72205;SDS011;60111;48.286;7.812;2022-12-29T08:41:44;2.90;;;1.80;;
72205;SDS011;60111;48.286;7.812;2022-12-29T08:44:17;5.20;;;2.02;;
72205;SDS011;60111;48.286;7.812;2022-12-29T08:46:49;3.62;;;2.02;;
72205;SDS011;60111;48.286;7.812;2022-12-29T08:49:22;4.72;;;1.65;;
72205;SDS011;60111;48.286;7.812;2022-12-29T08:51:54;3.42;;;2.08;;
72205;SDS011;60111;48.286;7.812;2022-12-29T08:54:27;4.12;;;2.10;;
72205;SDS011;60111;48.286;7.812;2022-12-29T08:56:59;4.60;;;2.25;;
72205;SDS011;60111;48.286;7.812;2022-12-29T08:59:33;4.17;;;1.92;;
72205;SDS011;60111;48.286;7.812;2022-12-29T09:02:05;3.52;;;1.70;;
72205;SDS011;60111;48.286;7.812;2022-12-29T09:04:39;5.55;;;1.75;;
72205;SDS011;60111;48.286;7.812;2022-12-29T09:07:12;1.90;;;1.60;;
72205;SDS011;60111;48.286;7.812;2022-12-29T09:09:44;4.35;;;1.87;;
72205;SDS011;60111;48.286;7.812;2022-12-29T09:12:17;5.97;;;1.98;;
72205;SDS011;60111;48.286;7.812;2022-12-29T09:14:50;3.87;;;1.92;;
72205;SDS011;60111;48.286;7.812;2022-12-29T09:17:22;5.70;;;2.02;;
72205;SDS011;60111;48.286;7.812;2022-12-29T09:20:16;4.08;;;2.33;;
72205;SDS011;60111;48.286;7.812;2022-12-29T09:22:49;7.25;;;2.10;;
72205;SDS011;60111;48.286;7.812;2022-12-29T09:25:22;5.97;;;2.10;;
72205;SDS011;60111;48.286;7.812;2022-12-29T09:27:55;3.50;;;1.70;;
72205;SDS011;60111;48.286;7.812;2022-12-29T09:30:27;3.62;;;1.90;;
72205;SDS011;60111;48.286;7.812;2022-12-29T09:33:00;4.72;;;2.10;;
72205;SDS011;60111;48.286;7.812;2022-12-29T09:35:33;3.67;;;1.90;;
72205;SDS011;60111;48.286;7.812;2022-12-29T09:38:05;3.08;;;1.80;;
72205;SDS011;60111;48.286;7.812;2022-12-29T09:40:38;8.78;;;2.42;;
72205;SDS011;60111;48.286;7.812;2022-12-29T09:43:22;3.05;;;1.90;;
72205;SDS011;60111;48.286;7.812;2022-12-29T09:46:06;4.53;;;1.90;;
72205;SDS011;60111;48.286;7.812;2022-12-29T09:48:44;3.67;;;2.00;;
72205;SDS011;60111;48.286;7.812;2022-12-29T09:51:21;6.75;;;2.12;;
72205;SDS011;60111;48.286;7.812;2022-12-29T09:54:03;3.08;;;1.70;;
72205;SDS011;60111;48.286;7.812;2022-12-29T10:00:05;4.03;;;2.40;;
72205;SDS011;60111;48.286;7.812;2022-12-29T10:02:16;5.00;;;2.00;;
72205;SDS011;60111;48.286;7.812;2022-12-29T10:04:54;6.10;;;2.05;;
72205;SDS011;60111;48.286;7.812;2022-12-29T10:07:30;10.82;;;2.15;;
72205;SDS011;60111;48.286;7.812;2022-12-29T10:10:27;3.37;;;1.82;;
72205;SDS011;60111;48.286;7.812;2022-12-29T10:13:08;4.72;;;2.05;;
72205;SDS011;60111;48.286;7.812;2022-12-29T10:18:57;3.83;;;2.00;;
72205;SDS011;60111;48.286;7.812;2022-12-29T10:21:33;3.75;;;1.67;;
72205;SDS011;60111;48.286;7.812;2022-12-29T10:24:20;4.58;;;2.12;;
72205;SDS011;60111;48.286;7.812;2022-12-29T10:26:53;5.42;;;2.25;;
72205;SDS011;60111;48.286;7.812;2022-12-29T10:29:32;4.60;;;1.77;;
72205;SDS011;60111;48.286;7.812;2022-12-29T10:32:19;4.33;;;1.57;;
72205;SDS011;60111;48.286;7.812;2022-12-29T10:34:54;5.90;;;2.07;;
72205;SDS011;60111;48.286;7.812;2022-12-29T10:40:18;3.22;;;1.90;;
72205;SDS011;60111;48.286;7.812;2022-12-29T10:42:50;7.25;;;1.65;;
72205;SDS011;60111;48.286;7.812;2022-12-29T10:45:29;4.10;;;2.02;;
72205;SDS011;60111;48.286;7.812;2022-12-29T10:48:01;7.45;;;4.20;;
72205;SDS011;60111;48.286;7.812;2022-12-29T10:50:38;3.75;;;2.40;;
72205;SDS011;60111;48.286;7.812;2022-12-29T10:53:23;11.65;;;5.97;;
72205;SDS011;60111;48.286;7.812;2022-12-29T10:55:52;22.98;;;9.88;;
72205;SDS011;60111;48.286;7.812;2022-12-29T11:00:59;5.25;;;2.80;;
72205;SDS011;60111;48.286;7.812;2022-12-29T11:03:40;8.60;;;2.65;;
72205;SDS011;60111;48.286;7.812;2022-12-29T11:06:24;7.43;;;2.30;;
72205;SDS011;60111;48.286;7.812;2022-12-29T11:09:02;5.33;;;2.17;;
72205;SDS011;60111;48.286;7.812;2022-12-29T11:11:48;4.95;;;2.17;;
72205;SDS011;60111;48.286;7.812;2022-12-29T11:14:28;5.45;;;1.90;;
72205;SDS011;60111;48.286;7.812;2022-12-29T11:17:03;3.87;;;1.98;;
72205;SDS011;60111;48.286;7.812;2022-12-29T11:22:26;4.40;;;2.10;;
72205;SDS011;60111;48.286;7.812;2022-12-29T11:25:04;4.40;;;2.22;;
72205;SDS011;60111;48.286;7.812;2022-12-29T11:27:31;9.50;;;2.27;;
72205;SDS011;60111;48.286;7.812;2022-12-29T11:30:10;4.92;;;2.02;;
72205;SDS011;60111;48.286;7.812;2022-12-29T11:32:41;5.20;;;2.50;;
72205;SDS011;60111;48.286;7.812;2022-12-29T11:35:40;3.65;;;2.42;;
72205;SDS011;60111;48.286;7.812;2022-12-29T11:38:05;5.22;;;2.27;;
72205;SDS011;60111;48.286;7.812;2022-12-29T11:40:39;8.30;;;2.83;;
72205;SDS011;60111;48.286;7.812;2022-12-29T11:43:21;4.15;;;2.20;;
72205;SDS011;60111;48.286;7.812;2022-12-29T11:45:56;3.67;;;2.33;;
72205;SDS011;60111;48.286;7.812;2022-12-29T11:48:29;4.10;;;2.00;;
72205;SDS011;60111;48.286;7.812;2022-12-29T11:51:04;6.37;;;2.27;;
72205;SDS011;60111;48.286;7.812;2022-12-29T11:53:45;4.22;;;2.20;;
72205;SDS011;60111;48.286;7.812;2022-12-29T11:56:23;5.25;;;2.47;;
72205;SDS011;60111;48.286;7.812;2022-12-29T12:05:01;3.40;;;2.15;;
72205;SDS011;60111;48.286;7.812;2022-12-29T12:07:46;4.92;;;2.37;;
72205;SDS011;60111;48.286;7.812;2022-12-29T12:10:34;4.30;;;2.47;;
72205;SDS011;60111;48.286;7.812;2022-12-29T12:15:59;7.63;;;3.87;;
72205;SDS011;60111;48.286;7.812;2022-12-29T12:18:44;5.03;;;2.40;;
72205;SDS011;60111;48.286;7.812;2022-12-29T12:24:10;4.97;;;2.58;;
72205;SDS011;60111;48.286;7.812;2022-12-29T12:27:00;5.83;;;2.77;;
72205;SDS011;60111;48.286;7.812;2022-12-29T12:29:46;4.78;;;2.00;;
72205;SDS011;60111;48.286;7.812;2022-12-29T12:32:35;5.00;;;2.20;;
72205;SDS011;60111;48.286;7.812;2022-12-29T12:35:26;3.73;;;2.00;;
72205;SDS011;60111;48.286;7.812;2022-12-29T12:38:07;2.55;;;2.00;;
72205;SDS011;60111;48.286;7.812;2022-12-29T12:40:59;4.15;;;1.98;;
72205;SDS011;60111;48.286;7.812;2022-12-29T12:46:57;3.90;;;1.67;;
72205;SDS011;60111;48.286;7.812;2022-12-29T12:55:18;3.92;;;1.90;;
72205;SDS011;60111;48.286;7.812;2022-12-29T12:58:18;2.95;;;2.00;;
72205;SDS011;60111;48.286;7.812;2022-12-29T13:06:48;11.77;;;6.03;;
72205;SDS011;60111;48.286;7.812;2022-12-29T13:09:33;11.43;;;6.08;;
72205;SDS011;60111;48.286;7.812;2022-12-29T13:15:21;10.35;;;5.65;;
72205;SDS011;60111;48.286;7.812;2022-12-29T13:18:22;9.05;;;5.12;;
72205;SDS011;60111;48.286;7.812;2022-12-29T13:23:41;7.15;;;2.22;;
72205;SDS011;60111;48.286;7.812;2022-12-29T13:26:21;5.20;;;2.05;;
72205;SDS011;60111;48.286;7.812;2022-12-29T13:35:07;3.25;;;1.82;;
72205;SDS011;60111;48.286;7.812;2022-12-29T13:37:55;6.37;;;2.07;;
72205;SDS011;60111;48.286;7.812;2022-12-29T13:40:45;12.37;;;2.40;;
72205;SDS011;60111;48.286;7.812;2022-12-29T13:43:19;5.50;;;2.17;;
72205;SDS011;60111;48.286;7.812;2022-12-29T13:45:59;7.70;;;2.50;;
72205;SDS011;60111;48.286;7.812;2022-12-29T13:48:44;4.78;;;2.30;;
72205;SDS011;60111;48.286;7.812;2022-12-29T13:51:25;3.25;;;2.12;;
72205;SDS011;60111;48.286;7.812;2022-12-29T13:54:00;5.78;;;2.37;;
72205;SDS011;60111;48.286;7.812;2022-12-29T13:56:41;5.30;;;2.12;;
72205;SDS011;60111;48.286;7.812;2022-12-29T14:02:15;2.35;;;2.10;;
72205;SDS011;60111;48.286;7.812;2022-12-29T14:04:57;5.58;;;2.77;;
72205;SDS011;60111;48.286;7.812;2022-12-29T14:07:37;4.37;;;2.00;;
72205;SDS011;60111;48.286;7.812;2022-12-29T14:13:18;4.30;;;2.10;;
72205;SDS011;60111;48.286;7.812;2022-12-29T14:15:58;5.08;;;1.90;;
72205;SDS011;60111;48.286;7.812;2022-12-29T14:18:30;5.10;;;2.20;;
72205;SDS011;60111;48.286;7.812;2022-12-29T14:21:10;3.17;;;2.33;;
72205;SDS011;60111;48.286;7.812;2022-12-29T14:23:43;5.17;;;2.00;;
72205;SDS011;60111;48.286;7.812;2022-12-29T14:29:15;3.70;;;1.92;;
72205;SDS011;60111;48.286;7.812;2022-12-29T14:31:58;4.00;;;2.12;;
72205;SDS011;60111;48.286;7.812;2022-12-29T14:34:36;5.33;;;1.75;;
72205;SDS011;60111;48.286;7.812;2022-12-29T14:37:21;3.77;;;1.95;;
72205;SDS011;60111;48.286;7.812;2022-12-29T14:39:43;4.07;;;1.80;;
72205;SDS011;60111;48.286;7.812;2022-12-29T14:44:53;3.12;;;1.80;;
72205;SDS011;60111;48.286;7.812;2022-12-29T14:47:47;2.75;;;1.90;;
72205;SDS011;60111;48.286;7.812;2022-12-29T14:53:41;5.93;;;2.30;;
72205;SDS011;60111;48.286;7.812;2022-12-29T14:55:55;5.67;;;2.47;;
72205;SDS011;60111;48.286;7.812;2022-12-29T14:58:30;5.87;;;2.45;;
72205;SDS011;60111;48.286;7.812;2022-12-29T15:01:05;5.67;;;2.62;;
72205;SDS011;60111;48.286;7.812;2022-12-29T15:03:50;4.87;;;2.70;;
72205;SDS011;60111;48.286;7.812;2022-12-29T15:06:25;9.00;;;2.55;;
72205;SDS011;60111;48.286;7.812;2022-12-29T15:09:35;3.42;;;2.30;;
72205;SDS011;60111;48.286;7.812;2022-12-29T15:12:20;4.78;;;2.33;;
72205;SDS011;60111;48.286;7.812;2022-12-29T15:15:21;4.40;;;2.20;;
72205;SDS011;60111;48.286;7.812;2022-12-29T15:17:51;7.22;;;2.60;;
72205;SDS011;60111;48.286;7.812;2022-12-29T15:23:08;6.53;;;2.83;;
72205;SDS011;60111;48.286;7.812;2022-12-29T15:25:50;6.40;;;3.25;;
72205;SDS011;60111;48.286;7.812;2022-12-29T15:28:27;6.70;;;2.72;;
72205;SDS011;60111;48.286;7.812;2022-12-29T15:31:03;3.30;;;2.17;;
72205;SDS011;60111;48.286;7.812;2022-12-29T15:33:38;2.45;;;1.87;;
72205;SDS011;60111;48.286;7.812;2022-12-29T15:36:23;3.47;;;2.22;;
72205;SDS011;60111;48.286;7.812;2022-12-29T15:38:57;4.25;;;2.30;;
72205;SDS011;60111;48.286;7.812;2022-12-29T15:44:17;5.72;;;3.52;;
72205;SDS011;60111;48.286;7.812;2022-12-29T15:49:24;5.35;;;2.30;;
72205;SDS011;60111;48.286;7.812;2022-12-29T15:51:56;4.17;;;2.10;;
72205;SDS011;60111;48.286;7.812;2022-12-29T15:54:30;5.77;;;2.30;;
72205;SDS011;60111;48.286;7.812;2022-12-29T15:57:04;2.27;;;1.37;;
72205;SDS011;60111;48.286;7.812;2022-12-29T15:59:45;3.70;;;1.82;;
72205;SDS011;60111;48.286;7.812;2022-12-29T16:02:15;2.67;;;1.90;;
72205;SDS011;60111;48.286;7.812;2022-12-29T16:04:48;5.15;;;2.90;;
72205;SDS011;60111;48.286;7.812;2022-12-29T16:07:26;4.47;;;3.02;;
72205;SDS011;60111;48.286;7.812;2022-12-29T16:10:00;3.22;;;2.60;;
72205;SDS011;60111;48.286;7.812;2022-12-29T16:12:35;3.15;;;2.30;;
72205;SDS011;60111;48.286;7.812;2022-12-29T16:15:12;6.53;;;3.73;;
72205;SDS011;60111;48.286;7.812;2022-12-29T16:17:47;6.67;;;3.95;;
72205;SDS011;60111;48.286;7.812;2022-12-29T16:20:38;4.87;;;3.60;;
72205;SDS011;60111;48.286;7.812;2022-12-29T16:23:14;7.78;;;3.60;;
72205;SDS011;60111;48.286;7.812;2022-12-29T16:25:55;5.17;;;3.52;;
72205;SDS011;60111;48.286;7.812;2022-12-29T16:28:36;5.30;;;3.80;;
72205;SDS011;60111;48.286;7.812;2022-12-29T16:31:22;5.10;;;3.40;;
72205;SDS011;60111;48.286;7.812;2022-12-29T16:34:19;4.67;;;2.52;;
72205;SDS011;60111;48.286;7.812;2022-12-29T16:36:55;5.10;;;3.00;;
72205;SDS011;60111;48.286;7.812;2022-12-29T16:39:39;2.93;;;2.63;;
72205;SDS011;60111;48.286;7.812;2022-12-29T16:50:51;7.00;;;4.72;;
72205;SDS011;60111;48.286;7.812;2022-12-29T16:53:29;11.85;;;8.63;;
72205;SDS011;60111;48.286;7.812;2022-12-29T16:56:08;18.98;;;12.65;;
72205;SDS011;60111;48.286;7.812;2022-12-29T16:58:45;13.68;;;9.10;;
72205;SDS011;60111;48.286;7.812;2022-12-29T17:01:20;10.68;;;6.35;;
72205;SDS011;60111;48.286;7.812;2022-12-29T17:03:54;19.12;;;11.85;;
72205;SDS011;60111;48.286;7.812;2022-12-29T17:06:31;19.35;;;11.60;;
72205;SDS011;60111;48.286;7.812;2022-12-29T17:09:20;10.88;;;6.80;;
72205;SDS011;60111;48.286;7.812;2022-12-29T17:11:54;9.88;;;6.08;;
72205;SDS011;60111;48.286;7.812;2022-12-29T17:14:37;7.45;;;4.85;;
72205;SDS011;60111;48.286;7.812;2022-12-29T17:17:34;9.20;;;6.05;;
72205;SDS011;60111;48.286;7.812;2022-12-29T17:20:15;7.55;;;4.65;;
72205;SDS011;60111;48.286;7.812;2022-12-29T17:22:52;10.03;;;5.10;;
72205;SDS011;60111;48.286;7.812;2022-12-29T17:25:26;10.53;;;5.97;;
72205;SDS011;60111;48.286;7.812;2022-12-29T17:28:18;16.23;;;10.25;;
72205;SDS011;60111;48.286;7.812;2022-12-29T17:30:56;12.83;;;7.63;;
72205;SDS011;60111;48.286;7.812;2022-12-29T17:33:36;9.25;;;6.40;;
72205;SDS011;60111;48.286;7.812;2022-12-29T17:36:12;9.78;;;5.08;;
72205;SDS011;60111;48.286;7.812;2022-12-29T17:38:44;7.45;;;4.65;;
72205;SDS011;60111;48.286;7.812;2022-12-29T17:41:18;10.00;;;6.27;;